createdAt,value
2019-04-14T00:00:49.631Z,3.19
2019-04-14T00:01:50.097Z,3.12
2019-04-14T00:02:49.489Z,3.20
2019-04-14T00:03:50.074Z,3.08
2019-04-14T00:04:49.250Z,3.05
2019-04-14T00:05:49.725Z,3.04
2019-04-14T00:06:49.069Z,3.01
2019-04-14T00:07:49.548Z,2.89
2019-04-14T00:08:50.064Z,2.90
2019-04-14T00:09:49.825Z,2.97
2019-04-14T00:10:48.718Z,2.87
2019-04-14T00:11:48.736Z,2.97
2019-04-14T00:12:49.256Z,2.94
2019-04-14T00:13:48.450Z,2.97
2019-04-14T00:14:49.114Z,2.87
2019-04-14T00:15:50.452Z,2.86
2019-04-14T00:16:48.961Z,2.80
2019-04-14T00:17:48.106Z,2.84
2019-04-14T00:18:49.091Z,2.94
2019-04-14T00:19:47.940Z,2.89
2019-04-14T00:20:49.034Z,2.95
2019-04-14T00:21:47.759Z,2.95
2019-04-14T00:22:48.912Z,2.95
2019-04-14T00:23:47.888Z,2.94
2019-04-14T00:24:48.801Z,2.94
2019-04-14T00:25:47.693Z,2.90
2019-04-14T00:26:47.312Z,2.87
2019-04-14T00:27:47.583Z,2.77
2019-04-14T00:28:47.220Z,2.83
2019-04-14T00:29:47.950Z,2.94
2019-04-14T00:30:47.068Z,2.87
2019-04-14T00:31:47.657Z,2.80
2019-04-14T00:32:53.796Z,2.84
2019-04-14T00:33:47.561Z,2.74
2019-04-14T00:34:46.615Z,2.86
2019-04-14T00:35:47.174Z,2.79
2019-04-14T00:36:46.555Z,2.81
2019-04-14T00:37:46.660Z,2.69
2019-04-14T00:38:46.261Z,2.66
2019-04-14T00:39:46.594Z,2.71
2019-04-14T00:40:46.203Z,2.68
2019-04-14T00:41:51.833Z,2.69
2019-04-14T00:42:45.913Z,2.65
2019-04-14T00:43:48.492Z,2.63
2019-04-14T00:44:45.737Z,2.59
2019-04-14T00:45:51.200Z,2.55
2019-04-14T00:46:45.575Z,2.55
2019-04-14T00:47:54.761Z,2.63
2019-04-14T00:48:45.388Z,2.63
2019-04-14T00:49:46.266Z,2.56
2019-04-14T00:50:45.291Z,2.53
2019-04-14T00:51:46.121Z,2.53
2019-04-14T00:52:45.827Z,2.48
2019-04-14T00:53:45.032Z,2.47
2019-04-14T00:54:45.646Z,2.44
2019-04-14T00:55:44.796Z,2.47
2019-04-14T00:56:45.479Z,2.50
2019-04-14T00:57:44.597Z,2.47
2019-04-14T00:58:45.370Z,2.47
2019-04-14T00:59:44.459Z,2.58
2019-04-14T01:00:45.162Z,2.59
2019-04-14T01:01:44.266Z,2.56
2019-04-14T01:02:45.033Z,2.53
2019-04-14T01:03:44.182Z,2.56
2019-04-14T01:04:44.792Z,2.51
2019-04-14T01:05:43.918Z,2.56
2019-04-14T01:06:44.831Z,2.53
2019-04-14T01:07:43.718Z,2.58
2019-04-14T01:08:44.557Z,2.56
2019-04-14T01:09:44.246Z,2.51
2019-04-14T01:10:43.466Z,2.62
2019-04-14T01:11:44.336Z,2.56
2019-04-14T01:12:43.356Z,2.62
2019-04-14T01:13:44.003Z,2.53
2019-04-14T01:14:43.181Z,2.43
2019-04-14T01:15:52.582Z,2.53
2019-04-14T01:16:43.027Z,2.50
2019-04-14T01:17:43.849Z,2.53
2019-04-14T01:18:45.030Z,2.43
2019-04-14T01:19:43.804Z,2.44
2019-04-14T01:20:42.863Z,2.50
2019-04-14T01:21:43.515Z,2.47
2019-04-14T01:22:42.525Z,2.50
2019-04-14T01:23:43.448Z,2.50
2019-04-14T01:24:42.511Z,2.62
2019-04-14T01:25:43.151Z,2.68
2019-04-14T01:26:42.141Z,2.71
2019-04-14T01:27:42.926Z,2.65
2019-04-14T01:28:41.951Z,2.71
2019-04-14T01:29:42.735Z,2.69
2019-04-14T01:30:41.698Z,2.55
2019-04-14T01:31:42.513Z,2.68
2019-04-14T01:32:41.573Z,2.69
2019-04-14T01:33:42.293Z,2.65
2019-04-14T01:34:41.423Z,2.48
2019-04-14T01:35:42.119Z,2.51
2019-04-14T01:36:41.192Z,2.55
2019-04-14T01:37:41.913Z,2.50
2019-04-14T01:38:40.996Z,2.47
2019-04-14T01:39:41.438Z,2.43
2019-04-14T01:40:48.763Z,2.48
2019-04-14T01:41:41.107Z,2.32
2019-04-14T01:42:41.975Z,2.47
2019-04-14T01:43:40.650Z,2.32
2019-04-14T01:44:41.619Z,2.43
2019-04-14T01:45:40.475Z,2.38
2019-04-14T01:46:41.252Z,2.38
2019-04-14T01:47:40.206Z,2.51
2019-04-14T01:48:41.034Z,2.45
2019-04-14T01:49:40.031Z,2.37
2019-04-14T01:50:40.940Z,2.40
2019-04-14T01:51:39.934Z,2.41
2019-04-14T01:52:40.630Z,2.36
2019-04-14T01:53:40.092Z,2.36
2019-04-14T01:54:40.748Z,2.45
2019-04-14T01:55:39.532Z,2.36
2019-04-14T01:56:40.511Z,2.33
2019-04-14T01:57:39.328Z,2.33
2019-04-14T01:58:40.385Z,2.38
2019-04-14T01:59:39.195Z,2.38
2019-04-14T02:00:40.232Z,2.25
2019-04-14T02:01:39.031Z,2.40
2019-04-14T02:02:40.011Z,2.40
2019-04-14T02:03:38.827Z,2.38
2019-04-14T02:04:39.815Z,2.37
2019-04-14T02:05:38.638Z,2.37
2019-04-14T02:06:39.782Z,2.47
2019-04-14T02:07:38.454Z,2.53
2019-04-14T02:08:39.346Z,2.44
2019-04-14T02:09:38.273Z,2.47
2019-04-14T02:10:39.272Z,2.40
2019-04-14T02:11:38.131Z,2.41
2019-04-14T02:12:38.774Z,2.51
2019-04-14T02:13:38.012Z,2.47
2019-04-14T02:14:38.679Z,2.45
2019-04-14T02:15:37.754Z,2.41
2019-04-14T02:16:44.357Z,2.50
2019-04-14T02:17:37.570Z,2.43
2019-04-14T02:18:38.431Z,2.47
2019-04-14T02:19:37.438Z,2.53
2019-04-14T02:20:38.176Z,2.48
2019-04-14T02:21:37.279Z,2.53
2019-04-14T02:22:37.625Z,2.48
2019-04-14T02:23:37.161Z,2.53
2019-04-14T02:24:37.469Z,2.56
2019-04-14T02:25:38.112Z,2.55
2019-04-14T02:26:37.835Z,2.50
2019-04-14T02:27:36.693Z,2.56
2019-04-14T02:28:37.563Z,2.69
2019-04-14T02:29:36.586Z,2.61
2019-04-14T02:30:44.408Z,2.58
2019-04-14T02:32:01.694Z,2.61
2019-04-14T02:33:03.503Z,2.69
2019-04-14T02:33:58.786Z,2.71
2019-04-14T02:35:08.564Z,2.74
2019-04-14T02:36:05.749Z,2.71
2019-04-14T02:37:04.687Z,2.68
2019-04-14T02:38:12.327Z,2.81
2019-04-14T02:40:04.052Z,2.81
2019-04-14T02:41:03.011Z,2.83
2019-04-14T02:42:07.015Z,2.81
2019-04-14T02:43:03.889Z,2.83
2019-04-14T02:44:59.834Z,2.80
2019-04-14T02:46:03.510Z,2.81
2019-04-14T02:47:11.602Z,2.87
2019-04-14T02:48:20.305Z,2.77
2019-04-14T02:49:12.482Z,2.74
2019-04-14T02:50:08.789Z,2.77
2019-04-14T02:51:04.271Z,2.74
2019-04-14T02:53:01.583Z,2.73
2019-04-14T02:54:59.923Z,2.69
2019-04-14T02:57:03.530Z,2.71
2019-04-14T02:58:01.780Z,2.77
2019-04-14T02:59:01.768Z,2.69
2019-04-14T02:59:58.764Z,2.69
2019-04-14T03:02:20.102Z,2.77
2019-04-14T03:02:56.287Z,2.69
2019-04-14T03:04:01.634Z,2.62
2019-04-14T03:05:10.023Z,2.63
2019-04-14T03:06:01.845Z,2.74
2019-04-14T03:07:05.190Z,2.68
2019-04-14T03:08:00.568Z,2.77
2019-04-14T03:09:13.590Z,2.81
2019-04-14T03:09:58.633Z,2.74
2019-04-14T03:11:01.202Z,2.65
2019-04-14T03:12:19.211Z,2.81
2019-04-14T03:13:13.135Z,2.79
2019-04-14T03:13:58.565Z,2.68
2019-04-14T03:16:09.109Z,2.68
2019-04-14T03:18:20.367Z,2.79
2019-04-14T03:20:09.400Z,2.77
2019-04-14T03:20:55.695Z,2.79
2019-04-14T03:22:05.094Z,2.79
2019-04-14T03:23:14.310Z,2.83
2019-04-14T03:24:01.259Z,2.76
2019-04-14T03:24:43.596Z,2.73
2019-04-14T03:25:49.247Z,2.66
2019-04-14T03:26:56.140Z,2.76
2019-04-14T03:28:12.219Z,2.81
2019-04-14T03:28:51.438Z,2.74
2019-04-14T03:29:58.347Z,2.66
2019-04-14T03:31:08.592Z,2.76
2019-04-14T03:33:26.925Z,2.71
2019-04-14T03:35:09.799Z,2.80
2019-04-14T03:36:20.971Z,2.90
2019-04-14T03:38:58.934Z,2.84
2019-04-14T03:39:55.207Z,2.99
2019-04-14T03:41:03.817Z,2.98
2019-04-14T03:41:56.706Z,2.98
2019-04-14T03:43:04.075Z,3.04
2019-04-14T03:43:48.412Z,3.07
2019-04-14T03:45:14.331Z,3.15
2019-04-14T03:46:58.991Z,3.05
2019-04-14T03:48:22.424Z,3.01
2019-04-14T03:49:01.692Z,3.04
2019-04-14T03:49:56.378Z,3.08
2019-04-14T03:51:00.434Z,3.13
2019-04-14T03:52:27.539Z,3.07
2019-04-14T03:52:56.129Z,3.12
2019-04-14T03:53:53.499Z,3.13
2019-04-14T03:54:44.057Z,3.12
2019-04-14T03:55:37.038Z,3.16
2019-04-14T03:56:29.187Z,3.16
2019-04-14T03:57:30.071Z,3.12
2019-04-14T03:58:29.267Z,3.16
2019-04-14T03:59:28.632Z,3.17
2019-04-14T04:00:29.187Z,3.19
2019-04-14T04:01:28.446Z,3.15
2019-04-14T04:02:29.429Z,3.17
2019-04-14T04:03:28.270Z,3.16
2019-04-14T04:04:29.347Z,3.13
2019-04-14T04:05:28.095Z,3.10
2019-04-14T04:06:29.187Z,3.15
2019-04-14T04:07:27.954Z,3.10
2019-04-14T04:08:29.029Z,3.12
2019-04-14T04:09:27.892Z,3.15
2019-04-14T04:10:27.671Z,3.07
2019-04-14T04:11:28.039Z,3.05
2019-04-14T04:12:27.598Z,3.10
2019-04-14T04:13:28.076Z,3.15
2019-04-14T04:14:27.339Z,3.19
2019-04-14T04:15:27.853Z,3.22
2019-04-14T04:16:27.130Z,3.28
2019-04-14T04:17:27.621Z,3.20
2019-04-14T04:18:26.994Z,3.22
2019-04-14T04:19:27.304Z,3.26
2019-04-14T04:20:28.540Z,3.17
2019-04-14T04:21:26.975Z,3.16
2019-04-14T04:22:26.609Z,3.25
2019-04-14T04:23:27.121Z,3.26
2019-04-14T04:24:29.100Z,3.35
2019-04-14T04:25:26.846Z,3.30
2019-04-14T04:26:26.336Z,3.28
2019-04-14T04:27:26.557Z,3.39
2019-04-14T04:28:26.147Z,3.42
2019-04-14T04:29:26.585Z,3.42
2019-04-14T04:30:25.956Z,3.42
2019-04-14T04:31:26.416Z,3.42
2019-04-14T04:32:25.730Z,3.53
2019-04-14T04:33:26.380Z,3.52
2019-04-14T04:34:25.552Z,3.56
2019-04-14T04:35:26.005Z,3.53
2019-04-14T04:36:25.494Z,3.53
2019-04-14T04:37:25.693Z,3.54
2019-04-14T04:38:25.213Z,3.59
2019-04-14T04:39:25.753Z,3.54
2019-04-14T04:40:25.043Z,3.60
2019-04-14T04:41:25.357Z,3.62
2019-04-14T04:42:35.042Z,3.56
2019-04-14T04:43:25.492Z,3.60
2019-04-14T04:44:24.863Z,3.53
2019-04-14T04:45:25.681Z,3.56
2019-04-14T04:46:24.507Z,3.57
2019-04-14T04:47:25.223Z,3.59
2019-04-14T04:48:31.404Z,3.59
2019-04-14T04:49:27.357Z,3.59
2019-04-14T04:50:24.177Z,3.56
2019-04-14T04:51:24.599Z,3.56
2019-04-14T04:52:23.989Z,3.57
2019-04-14T04:53:24.465Z,3.57
2019-04-14T04:54:23.812Z,3.70
2019-04-14T04:55:24.168Z,3.68
2019-04-14T04:56:23.640Z,3.70
2019-04-14T04:57:24.211Z,3.72
2019-04-14T04:58:24.104Z,3.74
2019-04-14T04:59:23.515Z,3.62
2019-04-14T05:00:24.385Z,3.68
2019-04-14T05:01:23.301Z,3.78
2019-04-14T05:02:23.110Z,3.75
2019-04-14T05:03:23.371Z,3.71
2019-04-14T05:04:22.945Z,3.74
2019-04-14T05:05:27.429Z,3.70
2019-04-14T05:06:23.770Z,3.62
2019-04-14T05:07:23.123Z,3.71
2019-04-14T05:08:22.586Z,3.71
2019-04-14T05:09:23.072Z,3.67
2019-04-14T05:10:22.431Z,3.75
2019-04-14T05:11:23.048Z,3.80
2019-04-14T05:12:22.245Z,3.75
2019-04-14T05:13:22.671Z,3.75
2019-04-14T05:14:22.064Z,3.77
2019-04-14T05:15:22.653Z,3.84
2019-04-14T05:16:21.890Z,3.92
2019-04-14T05:17:23.392Z,3.90
2019-04-14T05:18:22.213Z,3.96
2019-04-14T05:19:27.697Z,3.98
2019-04-14T05:20:22.457Z,3.93
2019-04-14T05:21:21.516Z,3.95
2019-04-14T05:22:22.388Z,3.99
2019-04-14T05:23:21.439Z,4.00
2019-04-14T05:24:22.218Z,4.06
2019-04-14T05:25:21.654Z,4.07
2019-04-14T05:26:22.057Z,4.04
2019-04-14T05:27:21.119Z,3.99
2019-04-14T05:28:21.957Z,4.07
2019-04-14T05:29:21.107Z,4.07
2019-04-14T05:30:21.764Z,4.04
2019-04-14T05:31:20.767Z,4.10
2019-04-14T05:32:21.528Z,4.11
2019-04-14T05:33:20.729Z,4.00
2019-04-14T05:34:21.367Z,4.08
2019-04-14T05:35:20.608Z,4.17
2019-04-14T05:36:21.219Z,4.13
2019-04-14T05:37:20.889Z,4.11
2019-04-14T05:38:21.133Z,4.14
2019-04-14T05:39:20.012Z,4.25
2019-04-14T05:40:20.943Z,4.18
2019-04-14T05:41:20.128Z,4.26
2019-04-14T05:42:24.041Z,4.25
2019-04-14T05:43:30.333Z,4.29
2019-04-14T05:44:20.675Z,4.38
2019-04-14T05:45:19.872Z,4.35
2019-04-14T05:46:20.445Z,4.44
2019-04-14T05:47:19.698Z,4.49
2019-04-14T05:48:20.325Z,4.47
2019-04-14T05:49:32.900Z,4.51
2019-04-14T05:50:20.199Z,4.57
2019-04-14T05:51:23.612Z,4.54
2019-04-14T05:52:18.776Z,4.65
2019-04-14T05:53:19.640Z,4.64
2019-04-14T05:54:18.653Z,4.54
2019-04-14T05:55:19.786Z,4.64
2019-04-14T05:56:18.665Z,4.68
2019-04-14T05:57:18.342Z,4.59
2019-04-14T05:58:19.289Z,4.71
2019-04-14T05:59:18.171Z,4.68
2019-04-14T06:00:19.059Z,4.68
2019-04-14T06:01:18.828Z,4.69
2019-04-14T06:02:18.085Z,4.84
2019-04-14T06:03:19.076Z,4.84
2019-04-14T06:04:17.879Z,5.01
2019-04-14T06:05:18.873Z,4.99
2019-04-14T06:06:17.779Z,4.99
2019-04-14T06:07:17.552Z,5.01
2019-04-14T06:08:18.221Z,5.17
2019-04-14T06:09:17.343Z,5.06
2019-04-14T06:10:17.363Z,5.20
2019-04-14T06:11:17.160Z,5.20
2019-04-14T06:12:17.158Z,5.23
2019-04-14T06:13:17.113Z,5.20
2019-04-14T06:14:16.886Z,5.30
2019-04-14T06:15:17.875Z,5.27
2019-04-14T06:16:16.869Z,5.33
2019-04-14T06:17:16.682Z,5.20
2019-04-14T06:18:16.765Z,5.22
2019-04-14T06:19:16.462Z,5.23
2019-04-14T06:20:16.375Z,5.22
2019-04-14T06:21:16.516Z,5.27
2019-04-14T06:22:16.723Z,5.12
2019-04-14T06:23:16.131Z,5.12
2019-04-14T06:24:16.192Z,4.99
2019-04-14T06:25:15.973Z,5.06
2019-04-14T06:26:20.336Z,5.04
2019-04-14T06:27:15.785Z,5.01
2019-04-14T06:28:15.809Z,4.99
2019-04-14T06:29:15.613Z,5.06
2019-04-14T06:30:15.618Z,5.14
2019-04-14T06:31:15.454Z,5.14
2019-04-14T06:32:18.838Z,5.22
2019-04-14T06:33:15.274Z,5.20
2019-04-14T06:34:15.187Z,5.24
2019-04-14T06:35:15.144Z,5.14
2019-04-14T06:36:15.021Z,5.20
2019-04-14T06:37:14.954Z,5.35
2019-04-14T06:38:14.962Z,5.27
2019-04-14T06:39:14.770Z,5.17
2019-04-14T06:40:14.681Z,5.20
2019-04-14T06:41:14.670Z,5.27
2019-04-14T06:42:14.524Z,5.23
2019-04-14T06:43:14.433Z,5.30
2019-04-14T06:44:21.347Z,5.33
2019-04-14T06:45:14.259Z,5.42
2019-04-14T06:46:14.171Z,5.56
2019-04-14T06:47:14.136Z,5.69
2019-04-14T06:48:14.002Z,5.85
2019-04-14T06:49:13.916Z,5.96
2019-04-14T06:50:22.823Z,6.11
2019-04-14T06:51:13.748Z,6.19
2019-04-14T06:52:13.685Z,6.03
2019-04-14T06:53:13.627Z,6.05
2019-04-14T06:54:13.498Z,6.01
2019-04-14T06:55:13.415Z,6.05
2019-04-14T06:56:13.344Z,6.17
2019-04-14T06:57:13.273Z,6.36
2019-04-14T06:58:13.161Z,6.51
2019-04-14T06:59:13.166Z,6.53
2019-04-14T07:00:12.994Z,6.57
2019-04-14T07:01:12.914Z,6.38
2019-04-14T07:02:12.907Z,6.32
2019-04-14T07:03:12.747Z,6.55
2019-04-14T07:04:12.660Z,6.51
2019-04-14T07:05:12.687Z,6.61
2019-04-14T07:06:12.500Z,6.58
2019-04-14T07:07:12.429Z,6.68
2019-04-14T07:08:14.344Z,6.50
2019-04-14T07:09:12.243Z,6.36
2019-04-14T07:10:12.176Z,6.27
2019-04-14T07:11:12.086Z,6.30
2019-04-14T07:12:12.095Z,6.39
2019-04-14T07:13:13.993Z,6.40
2019-04-14T07:14:11.829Z,6.43
2019-04-14T07:15:11.832Z,6.21
2019-04-14T07:16:11.674Z,6.30
2019-04-14T07:17:11.602Z,6.02
2019-04-14T07:18:12.126Z,6.21
2019-04-14T07:19:11.413Z,6.16
2019-04-14T07:20:11.331Z,6.51
2019-04-14T07:21:12.284Z,6.64
2019-04-14T07:22:11.186Z,6.58
2019-04-14T07:23:11.109Z,6.86
2019-04-14T07:24:11.000Z,6.93
2019-04-14T07:25:10.987Z,6.94
2019-04-14T07:26:10.831Z,7.27
2019-04-14T07:27:10.765Z,7.48
2019-04-14T07:28:10.668Z,7.55
2019-04-14T07:29:10.600Z,7.63
2019-04-14T07:30:10.501Z,7.55
2019-04-14T07:31:10.478Z,7.15
2019-04-14T07:32:10.362Z,7.04
2019-04-14T07:33:10.251Z,6.90
2019-04-14T07:34:10.172Z,6.90
2019-04-14T07:35:10.129Z,6.96
2019-04-14T07:36:10.010Z,7.04
2019-04-14T07:37:09.969Z,7.16
2019-04-14T07:38:09.845Z,7.19
2019-04-14T07:39:09.851Z,7.01
2019-04-14T07:40:09.686Z,7.08
2019-04-14T07:41:09.661Z,7.12
2019-04-14T07:42:09.534Z,7.33
2019-04-14T07:43:09.447Z,7.26
2019-04-14T07:44:09.355Z,7.57
2019-04-14T07:45:09.334Z,7.66
2019-04-14T07:46:09.191Z,7.95
2019-04-14T07:47:09.129Z,7.54
2019-04-14T07:48:09.031Z,7.36
2019-04-14T07:49:09.033Z,7.36
2019-04-14T07:50:14.855Z,7.70
2019-04-14T07:51:08.783Z,7.94
2019-04-14T07:52:08.739Z,8.10
2019-04-14T07:53:08.623Z,7.89
2019-04-14T07:54:08.545Z,7.94
2019-04-14T07:55:08.469Z,7.91
2019-04-14T07:56:08.466Z,8.28
2019-04-14T07:57:08.431Z,7.91
2019-04-14T07:58:08.214Z,7.99
2019-04-14T07:59:08.136Z,7.95
2019-04-14T08:00:08.166Z,8.02
2019-04-14T08:01:07.973Z,8.20
2019-04-14T08:02:07.907Z,8.02
2019-04-14T08:03:07.886Z,7.94
2019-04-14T08:04:07.733Z,7.86
2019-04-14T08:05:07.701Z,7.81
2019-04-14T08:06:07.683Z,7.62
2019-04-14T08:07:07.503Z,7.91
2019-04-14T08:08:07.457Z,7.82
2019-04-14T08:09:07.347Z,7.96
2019-04-14T08:10:07.254Z,8.28
2019-04-14T08:11:07.182Z,8.45
2019-04-14T08:12:07.099Z,8.61
2019-04-14T08:13:07.017Z,8.50
2019-04-14T08:14:07.020Z,8.49
2019-04-14T08:15:06.842Z,8.31
2019-04-14T08:16:06.761Z,8.28
2019-04-14T08:17:06.737Z,8.21
2019-04-14T08:18:06.611Z,8.18
2019-04-14T08:19:06.519Z,8.40
2019-04-14T08:20:06.567Z,8.21
2019-04-14T08:21:06.357Z,8.52
2019-04-14T08:22:06.275Z,8.43
2019-04-14T08:23:06.215Z,8.52
2019-04-14T08:24:06.117Z,8.67
2019-04-14T08:25:06.052Z,8.85
2019-04-14T08:26:05.975Z,8.79
2019-04-14T08:27:05.878Z,8.63
2019-04-14T08:28:06.853Z,8.54
2019-04-14T08:29:05.730Z,8.49
2019-04-14T08:30:05.638Z,8.93
2019-04-14T08:31:05.572Z,9.13
2019-04-14T08:32:05.509Z,9.27
2019-04-14T08:33:05.453Z,9.15
2019-04-14T08:34:05.315Z,8.94
2019-04-14T08:35:05.233Z,9.24
2019-04-14T08:36:05.228Z,9.40
2019-04-14T08:37:05.075Z,9.38
2019-04-14T08:38:05.004Z,9.56
2019-04-14T08:39:04.941Z,9.62
2019-04-14T08:40:04.844Z,9.23
2019-04-14T08:41:04.751Z,9.31
2019-04-14T08:42:04.755Z,9.27
2019-04-14T08:43:04.604Z,9.48
2019-04-14T08:44:04.510Z,9.48
2019-04-14T08:45:04.469Z,9.41
2019-04-14T08:46:04.357Z,9.26
2019-04-14T08:47:04.271Z,9.49
2019-04-14T08:48:04.327Z,9.56
2019-04-14T08:49:04.119Z,9.45
2019-04-14T08:50:04.036Z,9.44
2019-04-14T08:51:03.962Z,9.59
2019-04-14T08:52:03.873Z,9.23
2019-04-14T08:53:03.812Z,9.32
2019-04-14T08:54:03.712Z,9.62
2019-04-14T08:55:03.637Z,9.74
2019-04-14T08:56:03.552Z,9.83
2019-04-14T08:57:03.488Z,9.92
2019-04-14T08:58:04.303Z,9.48
2019-04-14T08:59:03.324Z,9.31
2019-04-14T09:00:03.235Z,9.27
2019-04-14T09:01:03.155Z,9.58
2019-04-14T09:02:03.080Z,9.78
2019-04-14T09:03:03.012Z,9.85
2019-04-14T09:04:02.921Z,10.14
2019-04-14T09:05:02.847Z,9.67
2019-04-14T09:06:02.756Z,9.81
2019-04-14T09:07:02.675Z,9.80
2019-04-14T09:08:02.620Z,9.58
2019-04-14T09:09:02.520Z,9.50
2019-04-14T09:10:02.436Z,9.44
2019-04-14T09:11:02.364Z,8.80
2019-04-14T09:12:14.569Z,9.15
2019-04-14T09:13:02.213Z,9.27
2019-04-14T09:14:02.131Z,9.53
2019-04-14T09:15:02.039Z,9.86
2019-04-14T09:16:01.959Z,10.22
2019-04-14T09:17:01.936Z,10.46
2019-04-14T09:18:01.818Z,10.36
2019-04-14T09:19:07.489Z,10.70
2019-04-14T09:20:01.660Z,10.57
2019-04-14T09:21:01.566Z,10.73
2019-04-14T09:22:01.485Z,10.51
2019-04-14T09:23:01.415Z,10.28
2019-04-14T09:24:01.327Z,10.42
2019-04-14T09:25:01.242Z,10.46
2019-04-14T09:26:01.162Z,10.49
2019-04-14T09:27:01.087Z,10.51
2019-04-14T09:28:01.021Z,10.42
2019-04-14T09:29:00.984Z,10.51
2019-04-14T09:30:00.850Z,10.55
2019-04-14T09:31:00.772Z,10.35
2019-04-14T09:32:00.691Z,10.38
2019-04-14T09:33:00.631Z,10.58
2019-04-14T09:34:00.606Z,10.75
2019-04-14T09:35:00.450Z,10.72
2019-04-14T09:36:00.373Z,10.46
2019-04-14T09:37:00.300Z,10.29
2019-04-14T09:38:00.208Z,10.43
2019-04-14T09:39:00.149Z,10.68
2019-04-14T09:40:00.058Z,10.73
2019-04-14T09:40:59.975Z,10.65
2019-04-14T09:41:59.891Z,10.42
2019-04-14T09:42:59.829Z,10.42
2019-04-14T09:43:59.745Z,10.22
2019-04-14T09:44:59.659Z,10.58
2019-04-14T09:45:59.582Z,10.46
2019-04-14T09:46:59.500Z,10.38
2019-04-14T09:47:59.509Z,10.31
2019-04-14T09:48:59.355Z,10.18
2019-04-14T09:49:59.318Z,10.09
2019-04-14T09:51:05.005Z,10.13
2019-04-14T09:51:59.125Z,10.29
2019-04-14T09:52:59.023Z,10.51
2019-04-14T09:53:59.171Z,10.46
2019-04-14T09:54:58.862Z,10.57
2019-04-14T09:55:58.783Z,10.87
2019-04-14T09:56:58.749Z,11.23
2019-04-14T09:57:58.617Z,11.63
2019-04-14T09:58:58.554Z,11.49
2019-04-14T09:59:58.564Z,11.11
2019-04-14T10:00:58.382Z,11.20
2019-04-14T10:01:58.310Z,10.57
2019-04-14T10:02:58.378Z,10.83
2019-04-14T10:03:58.166Z,11.11
2019-04-14T10:04:58.187Z,10.88
2019-04-14T10:05:57.987Z,10.88
2019-04-14T10:06:58.001Z,10.88
2019-04-14T10:07:57.834Z,10.84
2019-04-14T10:08:57.841Z,11.27
2019-04-14T10:09:57.666Z,11.56
2019-04-14T10:10:57.615Z,11.38
2019-04-14T10:11:57.522Z,11.67
2019-04-14T10:12:57.436Z,11.33
2019-04-14T10:13:57.381Z,11.53
2019-04-14T10:14:57.276Z,11.31
2019-04-14T10:15:57.193Z,11.35
2019-04-14T10:16:57.115Z,11.21
2019-04-14T10:17:57.038Z,11.20
2019-04-14T10:18:56.978Z,11.63
2019-04-14T10:19:56.884Z,11.66
2019-04-14T10:20:56.801Z,11.49
2019-04-14T10:21:56.720Z,11.54
2019-04-14T10:22:56.668Z,11.54
2019-04-14T10:23:56.576Z,11.36
2019-04-14T10:24:56.485Z,11.33
2019-04-14T10:25:56.484Z,11.38
2019-04-14T10:26:56.328Z,11.33
2019-04-14T10:27:56.291Z,11.59
2019-04-14T10:28:56.186Z,11.94
2019-04-14T10:29:56.306Z,12.04
2019-04-14T10:30:56.014Z,12.04
2019-04-14T10:31:55.936Z,12.03
2019-04-14T10:32:55.916Z,11.97
2019-04-14T10:33:55.794Z,12.01
2019-04-14T10:34:55.702Z,12.31
2019-04-14T10:35:55.732Z,11.98
2019-04-14T10:36:55.545Z,12.25
2019-04-14T10:37:55.540Z,11.97
2019-04-14T10:38:55.395Z,12.08
2019-04-14T10:39:55.310Z,12.18
2019-04-14T10:40:55.234Z,12.16
2019-04-14T10:41:55.157Z,12.13
2019-04-14T10:42:55.165Z,11.98
2019-04-14T10:43:55.016Z,12.03
2019-04-14T10:44:54.960Z,12.12
2019-04-14T10:45:54.843Z,12.30
2019-04-14T10:46:54.761Z,12.19
2019-04-14T10:47:54.682Z,11.90
2019-04-14T10:48:59.948Z,12.16
2019-04-14T10:49:54.524Z,12.21
2019-04-14T10:50:54.446Z,12.23
2019-04-14T10:51:54.378Z,12.07
2019-04-14T10:52:54.416Z,11.94
2019-04-14T10:53:54.228Z,12.12
2019-04-14T10:54:54.139Z,12.25
2019-04-14T10:55:54.225Z,11.97
2019-04-14T10:56:53.995Z,11.69
2019-04-14T10:57:53.896Z,11.63
2019-04-14T10:58:53.866Z,12.03
2019-04-14T10:59:53.746Z,12.11
2019-04-14T11:00:53.665Z,12.56
2019-04-14T11:01:53.665Z,12.85
2019-04-14T11:02:53.510Z,12.43
2019-04-14T11:03:53.489Z,12.51
2019-04-14T11:04:53.356Z,12.34
2019-04-14T11:05:53.477Z,12.26
2019-04-14T11:06:53.197Z,12.38
2019-04-14T11:07:53.118Z,12.03
2019-04-14T11:08:53.107Z,12.31
2019-04-14T11:09:53.969Z,12.51
2019-04-14T11:10:52.884Z,12.54
2019-04-14T11:11:52.896Z,12.58
2019-04-14T11:12:52.727Z,12.63
2019-04-14T11:13:52.702Z,12.69
2019-04-14T11:14:52.585Z,12.94
2019-04-14T11:15:52.513Z,13.46
2019-04-14T11:16:52.416Z,13.39
2019-04-14T11:17:52.423Z,13.21
2019-04-14T11:18:52.259Z,12.81
2019-04-14T11:19:52.264Z,13.04
2019-04-14T11:20:52.104Z,13.48
2019-04-14T11:21:52.023Z,13.44
2019-04-14T11:23:02.839Z,13.38
2019-04-14T11:23:51.877Z,13.76
2019-04-14T11:24:51.809Z,13.61
2019-04-14T11:25:51.759Z,13.46
2019-04-14T11:26:51.640Z,13.10
2019-04-14T11:27:51.562Z,12.95
2019-04-14T11:28:51.574Z,13.21
2019-04-14T11:29:53.896Z,13.62
2019-04-14T11:30:51.385Z,13.96
2019-04-14T11:31:51.251Z,13.66
2019-04-14T11:32:51.177Z,13.27
2019-04-14T11:33:51.199Z,13.17
2019-04-14T11:34:51.030Z,13.21
2019-04-14T11:35:50.945Z,13.32
2019-04-14T11:36:50.914Z,13.46
2019-04-14T11:37:50.790Z,12.61
2019-04-14T11:38:50.825Z,12.91
2019-04-14T11:39:50.655Z,12.84
2019-04-14T11:40:50.632Z,12.80
2019-04-14T11:41:50.483Z,12.98
2019-04-14T11:42:52.548Z,13.27
2019-04-14T11:43:50.356Z,12.69
2019-04-14T11:44:50.263Z,12.52
2019-04-14T11:45:50.164Z,12.89
2019-04-14T11:46:50.166Z,13.29
2019-04-14T11:47:50.012Z,13.94
2019-04-14T11:48:49.933Z,13.99
2019-04-14T11:49:49.907Z,14.01
2019-04-14T11:50:49.855Z,13.94
2019-04-14T11:51:55.395Z,13.93
2019-04-14T11:52:49.691Z,13.51
2019-04-14T11:53:49.546Z,13.27
2019-04-14T11:54:53.941Z,13.41
2019-04-14T11:55:49.392Z,13.62
2019-04-14T11:56:49.318Z,13.79
2019-04-14T11:57:49.319Z,13.91
2019-04-14T11:58:49.164Z,14.12
2019-04-14T11:59:49.100Z,14.48
2019-04-14T12:00:49.054Z,14.17
2019-04-14T12:01:48.927Z,13.68
2019-04-14T12:02:48.914Z,12.98
2019-04-14T12:03:48.861Z,12.92
2019-04-14T12:04:48.709Z,13.27
2019-04-14T12:05:48.620Z,13.47
2019-04-14T12:06:48.563Z,13.47
2019-04-14T12:07:48.469Z,13.46
2019-04-14T12:08:48.565Z,12.85
2019-04-14T12:09:48.322Z,12.77
2019-04-14T12:10:48.284Z,13.19
2019-04-14T12:11:48.159Z,13.57
2019-04-14T12:12:48.081Z,13.27
2019-04-14T12:13:48.098Z,13.50
2019-04-14T12:14:47.938Z,13.71
2019-04-14T12:15:47.848Z,13.80
2019-04-14T12:16:47.809Z,13.59
2019-04-14T12:17:47.734Z,13.99
2019-04-14T12:18:47.616Z,14.26
2019-04-14T12:19:47.664Z,14.36
2019-04-14T12:20:47.458Z,14.52
2019-04-14T12:21:47.378Z,14.39
2019-04-14T12:22:47.340Z,14.13
2019-04-14T12:23:47.227Z,14.26
2019-04-14T12:24:47.220Z,14.05
2019-04-14T12:25:47.141Z,13.98
2019-04-14T12:26:46.999Z,13.93
2019-04-14T12:27:46.917Z,14.12
2019-04-14T12:28:47.147Z,14.13
2019-04-14T12:29:47.852Z,14.39
2019-04-14T12:30:46.826Z,13.93
2019-04-14T12:31:46.648Z,13.83
2019-04-14T12:32:46.535Z,14.04
2019-04-14T12:33:46.457Z,14.12
2019-04-14T12:34:46.447Z,14.36
2019-04-14T12:35:46.303Z,13.62
2019-04-14T12:36:46.261Z,13.57
2019-04-14T12:37:46.156Z,13.94
2019-04-14T12:38:46.070Z,14.02
2019-04-14T12:39:45.998Z,14.13
2019-04-14T12:40:45.953Z,14.39
2019-04-14T12:41:45.845Z,14.24
2019-04-14T12:42:45.768Z,13.96
2019-04-14T12:43:45.689Z,13.99
2019-04-14T12:44:45.610Z,12.96
2019-04-14T12:45:45.551Z,13.22
2019-04-14T12:46:45.456Z,13.25
2019-04-14T12:47:45.383Z,13.72
2019-04-14T12:48:45.306Z,14.16
2019-04-14T12:49:45.234Z,14.38
2019-04-14T12:50:45.156Z,14.56
2019-04-14T12:51:45.075Z,14.82
2019-04-14T12:52:44.985Z,15.09
2019-04-14T12:53:44.911Z,14.71
2019-04-14T12:54:44.841Z,14.46
2019-04-14T12:55:44.766Z,13.69
2019-04-14T12:56:44.683Z,13.90
2019-04-14T12:57:44.602Z,13.71
2019-04-14T12:58:44.527Z,14.12
2019-04-14T12:59:44.445Z,13.99
2019-04-14T13:00:44.385Z,13.87
2019-04-14T13:01:44.283Z,13.86
2019-04-14T13:02:44.217Z,13.55
2019-04-14T13:03:44.125Z,13.61
2019-04-14T13:04:44.084Z,14.02
2019-04-14T13:05:44.027Z,14.24
2019-04-14T13:06:43.931Z,14.41
2019-04-14T13:07:43.819Z,14.54
2019-04-14T13:08:43.747Z,14.82
2019-04-14T13:09:43.661Z,14.64
2019-04-14T13:10:43.608Z,14.80
2019-04-14T13:11:43.506Z,14.69
2019-04-14T13:12:43.428Z,14.27
2019-04-14T13:13:43.355Z,14.29
2019-04-14T13:14:43.284Z,13.94
2019-04-14T13:15:43.213Z,13.31
2019-04-14T13:16:43.128Z,13.31
2019-04-14T13:17:43.043Z,13.31
2019-04-14T13:18:42.975Z,13.75
2019-04-14T13:19:42.883Z,13.99
2019-04-14T13:20:42.824Z,14.31
2019-04-14T13:21:42.732Z,14.36
2019-04-14T13:22:42.656Z,14.35
2019-04-14T13:23:42.571Z,13.72